Time;durP1;ratioP1;P1;durP2;ratioP2;P2;SDS_P1;SDS_P2;PMS_P1;PMS_P2;Temp;Humidity;BMP_temperature;BMP_pressure;BME280_temperature;BME280_humidity;BME280_pressure;Samples;Min_cycle;Max_cycle;Signal;HPM_P1;HPM_P2
2022/03/20 00:00:36;;;;;;;;;5.33;5.00;;;;;24.80;14.89;102203.16;5078004;27;45242;-79
2022/03/20 00:03:07;;;;;;;;;3.00;3.00;;;;;24.90;15.02;102215.63;5077853;27;45512;-79
2022/03/20 00:05:38;;;;;;;;;4.33;3.00;;;;;24.89;15.10;102213.84;5077696;27;45468;-78
2022/03/20 00:08:08;;;;;;;;;3.33;3.33;;;;;24.81;14.75;102210.38;5077352;27;45661;-78
2022/03/20 00:10:34;;;;;;;;;2.00;2.00;;;;;24.78;15.01;102204.97;5077919;27;45379;-79
2022/03/20 00:13:00;;;;;;;;;3.00;3.00;;;;;24.85;15.38;102203.94;5077205;27;45550;-79
2022/03/20 00:15:27;;;;;;;;;2.00;2.00;;;;;24.71;14.99;102193.38;5077455;28;45306;-79
2022/03/20 00:17:53;;;;;;;;;2.00;2.00;;;;;24.44;15.56;102156.69;5077198;27;45372;-79
2022/03/20 00:20:19;;;;;;;;;4.00;2.33;;;;;24.64;15.64;102195.28;5075706;28;45317;-78
2022/03/20 00:22:44;;;;;;;;;5.00;4.00;;;;;24.58;15.50;102197.16;5076511;28;45328;-79
2022/03/20 00:25:11;;;;;;;;;2.00;2.00;;;;;24.63;15.42;102201.63;5076168;28;46193;-78
2022/03/20 00:27:37;;;;;;;;;3.00;3.00;;;;;24.15;15.28;102122.81;5076483;27;45584;-79
2022/03/20 00:30:03;;;;;;;;;2.00;2.00;;;;;24.51;15.15;102190.03;5076344;27;45401;-78
2022/03/20 00:32:29;;;;;;;;;2.00;2.00;;;;;24.52;15.68;102206.28;5076323;27;45349;-78
2022/03/20 00:34:57;;;;;;;;;2.33;2.33;;;;;24.50;15.57;102200.00;5076593;27;50264;-78
2022/03/20 00:37:22;;;;;;;;;1.67;1.67;;;;;24.52;15.60;102198.16;5076457;27;45545;-78
2022/03/20 00:39:47;;;;;;;;;3.00;3.00;;;;;24.44;15.71;102190.16;5076532;28;45678;-78
2022/03/20 00:42:13;;;;;;;;;3.33;3.33;;;;;24.41;15.69;102168.47;5076498;28;48579;-79
2022/03/20 00:44:38;;;;;;;;;2.00;2.00;;;;;24.47;15.66;102190.09;5076081;27;46037;-78
2022/03/20 00:47:09;;;;;;;;;2.00;2.00;;;;;24.41;15.56;102187.47;5074918;28;47563;-79
2022/03/20 00:49:35;;;;;;;;;3.00;2.00;;;;;23.96;15.52;102117.66;5076084;27;45613;-79
2022/03/20 00:52:28;;;;;;;;;3.00;3.00;;;;;24.34;15.61;102179.47;5075915;27;45538;-78
2022/03/20 00:54:53;;;;;;;;;2.00;2.00;;;;;24.15;15.64;102142.69;5075791;27;46015;-79
2022/03/20 00:57:18;;;;;;;;;2.00;2.00;;;;;24.30;15.77;102174.09;5075962;28;45424;-78
2022/03/20 00:59:44;;;;;;;;;2.00;2.00;;;;;24.14;15.63;102156.28;5076001;27;45249;-78
2022/03/20 01:02:10;;;;;;;;;2.00;2.00;;;;;24.23;15.54;102179.63;5076023;27;45561;-79
2022/03/20 01:04:35;;;;;;;;;2.00;2.00;;;;;24.36;16.11;102172.19;5075777;27;45308;-79
2022/03/20 01:07:02;;;;;;;;;2.33;1.33;;;;;24.46;15.93;102171.13;5075890;27;45373;-79
2022/03/20 01:09:29;;;;;;;;;2.67;2.67;;;;;24.46;15.39;102171.13;5076154;27;45351;-79
2022/03/20 01:11:55;;;;;;;;;4.00;3.00;;;;;24.37;15.86;102174.00;5079453;27;45505;-79
2022/03/20 01:14:21;;;;;;;;;2.00;2.00;;;;;24.15;15.75;102136.38;5079248;27;45461;-79
2022/03/20 01:16:47;;;;;;;;;2.33;2.00;;;;;24.23;15.96;102164.28;5079366;27;45296;-78
2022/03/20 01:19:13;;;;;;;;;2.33;2.33;;;;;24.16;15.64;102151.69;5079067;28;45452;-78
2022/03/20 01:21:38;;;;;;;;;4.00;3.00;;;;;24.02;16.28;102142.91;5078862;27;45372;-79
2022/03/20 01:24:04;;;;;;;;;2.00;2.00;;;;;23.92;16.29;102129.50;5078975;27;45506;-80
2022/03/20 01:26:29;;;;;;;;;2.00;2.00;;;;;23.75;16.42;102126.09;5079074;28;45346;-79
2022/03/20 01:28:55;;;;;;;;;3.00;2.00;;;;;23.88;16.37;102154.84;5079221;28;45852;-79
2022/03/20 01:31:21;;;;;;;;;4.00;2.67;;;;;23.88;16.24;102144.00;5077707;28;45428;-79
2022/03/20 01:33:46;;;;;;;;;2.00;2.00;;;;;23.89;16.33;102150.31;5078518;28;46202;-79
2022/03/20 01:36:11;;;;;;;;;2.00;2.00;;;;;23.79;16.35;102136.84;5078984;27;45608;-79
2022/03/20 01:38:37;;;;;;;;;2.67;1.00;;;;;24.05;16.28;102153.69;5079203;27;45418;-79
2022/03/20 01:41:02;;;;;;;;;4.00;3.00;;;;;23.94;16.43;102146.63;5078774;28;51534;-79
2022/03/20 01:43:28;;;;;;;;;1.00;1.00;;;;;23.94;16.44;102145.72;5079144;28;45390;-79
2022/03/20 01:45:53;;;;;;;;;5.67;2.00;;;;;23.72;16.55;102102.63;5078968;27;45401;-78
2022/03/20 01:48:19;;;;;;;;;3.00;3.00;;;;;23.80;16.79;102143.19;5078654;27;45508;-79
2022/03/20 01:50:45;;;;;;;;;3.67;2.00;;;;;23.67;16.83;102131.63;5079360;27;45355;-79
2022/03/20 01:53:10;;;;;;;;;3.00;2.00;;;;;23.77;16.80;102140.53;5079640;27;46157;-79
2022/03/20 01:55:36;;;;;;;;;2.33;1.00;;;;;23.59;16.75;102103.75;5080305;28;45403;-78
2022/03/20 01:58:01;;;;;;;;;1.00;1.00;;;;;23.59;16.90;102099.19;5079130;27;45515;-79
2022/03/20 02:00:31;;;;;;;;;2.00;2.00;;;;;23.74;16.72;102110.72;5078707;27;45481;-80
2022/03/20 02:03:12;;;;;;;;;3.00;2.00;;;;;23.55;16.90;102104.69;5078087;27;45422;-81
2022/03/20 02:05:38;;;;;;;;;2.67;2.67;;;;;23.60;17.19;102119.97;5078646;28;45415;-82
2022/03/20 02:08:03;;;;;;;;;3.00;3.00;;;;;23.58;16.84;102121.78;5077286;28;45926;-81
2022/03/20 02:10:35;;;;;;;;;2.00;1.33;;;;;23.29;17.25;102092.41;5078412;27;45434;-81
2022/03/20 02:13:00;;;;;;;;;3.33;1.67;;;;;23.38;16.96;102116.63;5078220;27;45374;-81
2022/03/20 02:15:26;;;;;;;;;3.00;2.00;;;;;23.34;17.28;102114.00;5078305;27;45302;-81
2022/03/20 02:17:52;;;;;;;;;3.00;2.33;;;;;22.87;17.41;102029.69;5078053;27;45446;-81
2022/03/20 02:20:20;;;;;;;;;2.67;1.67;;;;;23.21;17.22;102114.16;5078051;27;45430;-81
2022/03/20 02:22:45;;;;;;;;;3.33;3.33;;;;;23.07;17.33;102116.09;5077961;28;46027;-81
2022/03/20 02:25:15;;;;;;;;;3.00;3.00;;;;;22.93;17.77;102094.59;5077668;27;45384;-81
2022/03/20 02:27:44;;;;;;;;;3.00;3.00;;;;;23.13;17.29;102113.34;5078233;28;45328;-81
2022/03/20 02:30:15;;;;;;;;;3.33;3.00;;;;;23.23;17.21;102104.19;5078427;27;45276;-81
2022/03/20 02:32:45;;;;;;;;;4.00;2.33;;;;;23.21;17.69;102103.31;5077969;28;45347;-82
2022/03/20 02:35:16;;;;;;;;;2.67;2.00;;;;;23.25;17.80;102102.38;5077964;28;45204;-81
2022/03/20 02:37:50;;;;;;;;;5.00;3.00;;;;;23.21;17.84;102100.59;5078331;28;45445;-81
2022/03/20 02:40:17;;;;;;;;;4.67;1.67;;;;;23.09;17.88;102095.31;5078082;28;45680;-81
2022/03/20 02:42:46;;;;;;;;;2.00;2.00;;;;;22.95;18.07;102099.09;5076672;28;47142;-81
2022/03/20 02:45:19;;;;;;;;;2.00;2.00;;;;;22.71;18.12;102051.53;5077884;28;45584;-82
2022/03/20 02:47:47;;;;;;;;;1.00;1.00;;;;;22.89;17.82;102088.31;5077759;27;45311;-82
2022/03/20 02:50:19;;;;;;;;;4.00;2.00;;;;;22.82;18.20;102089.28;5077591;28;45490;-82
2022/03/20 02:52:46;;;;;;;;;3.00;3.00;;;;;22.79;18.34;102092.91;5077897;28;46257;-82
2022/03/20 02:55:12;;;;;;;;;2.67;2.00;;;;;22.86;18.18;102087.47;5077595;28;45257;-82
2022/03/20 02:57:37;;;;;;;;;3.67;2.67;;;;;22.85;18.28;102082.94;5077587;28;45463;-83
2022/03/20 03:00:05;;;;;;;;;2.67;2.67;;;;;22.70;18.45;102070.47;5077682;28;45281;-83
2022/03/20 03:02:35;;;;;;;;;3.00;2.67;;;;;22.84;18.25;102098.31;5077237;28;46110;-83
2022/03/20 03:05:01;;;;;;;;;3.00;3.00;;;;;22.87;18.25;102094.63;5077614;27;45201;-82
2022/03/20 03:07:30;;;;;;;;;0.00;0.00;;;;;22.83;18.31;102085.69;5077267;27;47855;-82
2022/03/20 03:12:40;;;;;;;;;3.00;3.00;;;;;22.50;18.38;102005.78;5077538;28;45383;-82
2022/03/20 03:15:21;;;;;;;;;2.00;2.00;;;;;22.61;18.73;102036.31;5076893;27;45388;-82
2022/03/20 03:17:49;;;;;;;;;3.00;3.00;;;;;22.52;18.55;102034.59;5077674;27;45345;-83
2022/03/20 03:20:17;;;;;;;;;2.00;2.00;;;;;22.59;18.83;102057.97;5076908;27;45704;-82
2022/03/20 03:22:42;;;;;;;;;3.67;2.33;;;;;22.71;18.78;102061.47;5077243;27;46194;-83
2022/03/20 03:25:08;;;;;;;;;3.33;3.33;;;;;22.65;18.90;102050.72;5076997;28;45246;-83
2022/03/20 03:27:34;;;;;;;;;4.67;3.00;;;;;22.49;18.81;102017.50;5077176;27;45293;-83
2022/03/20 03:29:59;;;;;;;;;2.67;2.67;;;;;22.67;18.89;102051.56;5077088;27;45288;-82
2022/03/20 03:32:24;;;;;;;;;2.00;2.00;;;;;22.53;18.92;102014.78;5076068;27;46291;-82
2022/03/20 03:37:34;;;;;;;;;1.00;1.00;;;;;22.71;18.90;102061.47;5076832;28;45293;-82
2022/03/20 03:40:03;;;;;;;;;2.00;2.00;;;;;22.59;19.08;102055.25;5077153;28;45289;-82
2022/03/20 03:42:33;;;;;;;;;3.00;3.00;;;;;22.61;19.19;102053.47;5076717;27;45429;-82
2022/03/20 03:44:58;;;;;;;;;2.67;2.00;;;;;22.68;18.90;102056.09;5076866;27;45347;-82
2022/03/20 03:47:24;;;;;;;;;3.00;2.67;;;;;22.72;18.81;102057.84;5076732;27;45508;-82
2022/03/20 03:49:50;;;;;;;;;4.00;4.00;;;;;22.65;19.15;102069.66;5076873;27;45524;-82
2022/03/20 03:52:16;;;;;;;;;3.00;3.00;;;;;22.45;19.31;102049.09;5076767;27;45539;-82
2022/03/20 03:54:42;;;;;;;;;5.00;3.00;;;;;22.62;19.14;102067.88;5076749;28;45386;-81
2022/03/20 03:57:07;;;;;;;;;6.00;4.00;;;;;22.40;19.27;102023.91;5076951;27;45496;-81
2022/03/20 03:59:33;;;;;;;;;4.67;4.00;;;;;22.14;19.12;101992.59;5076330;27;45396;-82
2022/03/20 04:02:00;;;;;;;;;4.00;4.00;;;;;22.75;19.25;102044.28;5076512;27;46154;-82
2022/03/20 04:04:25;;;;;;;;;5.67;4.00;;;;;22.69;19.26;102044.34;5075098;27;45486;-82
2022/03/20 04:06:50;;;;;;;;;5.33;4.00;;;;;22.54;19.45;102042.69;5076651;28;45422;-81
2022/03/20 04:09:16;;;;;;;;;3.33;3.33;;;;;22.49;19.25;102050.88;5076559;28;45368;-82
2022/03/20 04:11:41;;;;;;;;;6.33;4.00;;;;;22.65;19.26;102048.00;5076445;27;45926;-82
2022/03/20 04:14:08;;;;;;;;;6.67;4.00;;;;;22.63;19.15;102029.09;5076541;27;45372;-82
2022/03/20 04:16:33;;;;;;;;;5.00;5.00;;;;;22.55;19.45;102022.88;5076505;28;45343;-82
2022/03/20 04:18:59;;;;;;;;;7.00;7.00;;;;;22.61;19.37;102045.34;5076481;27;45508;-82
2022/03/20 04:21:24;;;;;;;;;8.00;5.33;;;;;22.63;19.22;102041.69;5075885;27;47984;-81
2022/03/20 04:23:50;;;;;;;;;8.00;6.33;;;;;22.66;19.13;102047.06;5076640;27;45406;-82
2022/03/20 04:26:17;;;;;;;;;5.33;5.33;;;;;22.64;19.35;102044.38;5076609;28;45407;-83
2022/03/20 04:28:44;;;;;;;;;5.33;5.33;;;;;22.69;19.29;102066.00;5076161;27;45257;-82
2022/03/20 04:31:20;;;;;;;;;7.67;6.33;;;;;22.60;19.41;102045.34;5076054;27;45458;-81
2022/03/20 04:33:50;;;;;;;;;4.67;3.00;;;;;22.58;19.53;102058.88;5076179;28;45411;-81
2022/03/20 04:36:17;;;;;;;;;9.33;7.33;;;;;22.63;19.44;102052.53;5076093;27;45418;-81
2022/03/20 04:38:43;;;;;;;;;4.00;4.00;;;;;22.68;19.54;102040.75;5076267;27;45429;-82
2022/03/20 04:41:09;;;;;;;;;4.67;4.00;;;;;22.73;19.32;102048.81;5075822;28;45432;-81
2022/03/20 04:43:35;;;;;;;;;8.00;5.33;;;;;22.65;19.50;102064.25;5075159;27;45482;-82
2022/03/20 04:46:01;;;;;;;;;9.33;6.67;;;;;22.59;19.40;102055.25;5075212;28;45409;-82
2022/03/20 04:59:22;;;;;;;;;8.00;7.00;;;;;22.28;19.82;102017.69;5075875;28;45337;-81
2022/03/20 05:01:48;;;;;;;;;6.67;6.00;;;;;22.49;19.79;102039.13;5075514;27;46482;-82
2022/03/20 05:04:14;;;;;;;;;8.33;7.00;;;;;22.47;19.65;102041.84;5075979;27;45323;-81
2022/03/20 05:06:40;;;;;;;;;8.67;6.00;;;;;22.33;19.75;102028.47;5075982;27;45495;-81
2022/03/20 05:14:34;;;;;;;;;9.00;8.00;;;;;22.22;19.95;102024.94;5075286;28;45436;-81
2022/03/20 05:17:00;;;;;;;;;7.00;7.00;;;;;22.23;19.96;102021.34;5075785;27;45390;-81
2022/03/20 05:19:26;;;;;;;;;7.67;6.00;;;;;22.48;19.96;102049.06;5075612;28;45515;-81
2022/03/20 05:21:51;;;;;;;;;5.67;5.67;;;;;22.41;20.15;102055.47;5075233;27;45338;-81
2022/03/20 05:24:17;;;;;;;;;7.00;5.67;;;;;22.43;20.04;102050.91;5075364;28;45501;-81
2022/03/20 05:26:43;;;;;;;;;6.00;6.00;;;;;22.41;20.16;102050.94;5075333;27;45380;-82
2022/03/20 05:29:08;;;;;;;;;8.67;7.00;;;;;22.35;20.04;102047.38;5075736;28;45372;-81
2022/03/20 05:31:33;;;;;;;;;8.33;7.00;;;;;22.32;20.12;102051.00;5075212;28;45450;-81
2022/03/20 05:33:59;;;;;;;;;6.00;6.00;;;;;22.40;20.11;102056.34;5075360;28;45351;-82
2022/03/20 05:36:29;;;;;;;;;7.00;7.00;;;;;22.46;19.98;102042.81;5075219;28;45367;-82
2022/03/20 05:39:02;;;;;;;;;10.00;7.00;;;;;22.39;20.19;102062.66;5075480;28;45378;-82
2022/03/20 05:44:11;;;;;;;;;7.00;6.33;;;;;22.14;20.36;101995.31;5075332;27;45523;-81
2022/03/20 05:46:37;;;;;;;;;9.67;7.33;;;;;22.37;20.31;102030.25;5075165;27;45253;-81
2022/03/20 05:49:02;;;;;;;;;8.00;8.00;;;;;22.13;20.06;101990.78;5074352;28;45357;-82
2022/03/20 05:51:28;;;;;;;;;8.00;7.00;;;;;22.34;20.17;102026.69;5075157;27;45505;-81
2022/03/20 05:53:53;;;;;;;;;9.67;8.00;;;;;22.25;20.27;102047.44;5075463;27;45367;-81
2022/03/20 05:59:02;;;;;;;;;7.00;6.00;;;;;21.29;20.35;101881.63;5078959;28;45218;-81
2022/03/20 06:01:27;;;;;;;;;7.33;5.33;;;;;22.13;20.48;102023.22;5078580;28;45462;-81
2022/03/20 06:03:53;;;;;;;;;8.67;8.00;;;;;22.12;20.37;102009.72;5077062;28;46068;-81
2022/03/20 06:06:19;;;;;;;;;10.00;7.67;;;;;22.17;20.51;102034.94;5078724;27;45416;-81
2022/03/20 06:08:44;;;;;;;;;6.67;6.67;;;;;22.23;20.45;102040.25;5078513;27;45273;-79
2022/03/20 06:11:09;;;;;;;;;8.33;8.33;;;;;22.18;20.39;102029.50;5077952;27;46076;-77
2022/03/20 06:13:37;;;;;;;;;6.00;6.00;;;;;22.17;20.42;102008.78;5078068;27;47377;-78
2022/03/20 06:16:03;;;;;;;;;7.00;6.67;;;;;22.49;20.17;102029.25;5078268;27;45544;-78
2022/03/20 06:18:28;;;;;;;;;12.00;12.00;;;;;21.84;20.34;101924.44;5077883;27;45525;-78
2022/03/20 06:20:57;;;;;;;;;9.00;6.67;;;;;22.49;20.26;102045.47;5077758;27;45446;-78
2022/03/20 06:23:22;;;;;;;;;7.33;6.00;;;;;22.36;20.08;102035.66;5071381;27;45478;-77
2022/03/20 06:25:51;;;;;;;;;7.00;7.00;;;;;22.33;20.16;102028.47;5076317;27;45371;-78
2022/03/20 06:28:17;;;;;;;;;8.00;8.00;;;;;22.40;20.33;102062.69;5077272;27;45368;-78
2022/03/20 06:30:43;;;;;;;;;9.00;8.00;;;;;22.32;20.49;102053.72;5076051;27;45874;-78
2022/03/20 06:33:09;;;;;;;;;10.67;6.00;;;;;22.40;20.19;102056.34;5066116;28;45274;-78
2022/03/20 06:35:35;;;;;;;;;10.00;8.00;;;;;22.33;20.37;102023.06;5069057;27;45248;-79
2022/03/20 06:38:00;;;;;;;;;8.00;8.00;;;;;22.12;20.37;102007.91;5068582;27;45405;-79
2022/03/20 06:40:26;;;;;;;;;10.67;7.67;;;;;22.17;20.20;102016.88;5077351;27;45272;-78
2022/03/20 06:42:52;;;;;;;;;6.33;6.33;;;;;22.40;20.49;102053.66;5077569;27;45260;-78
2022/03/20 06:45:20;;;;;;;;;10.00;8.00;;;;;22.40;20.74;102069.88;5077886;27;45300;-78
2022/03/20 06:47:46;;;;;;;;;8.00;7.67;;;;;22.44;20.53;102068.94;5077701;27;45685;-78
2022/03/20 06:50:13;;;;;;;;;11.33;9.00;;;;;22.13;20.53;102017.81;5093665;27;45983;-78
2022/03/20 06:52:39;;;;;;;;;10.33;9.00;;;;;22.18;20.36;102026.78;5077113;27;45803;-78
2022/03/20 06:55:06;;;;;;;;;8.00;7.00;;;;;22.22;20.53;102046.56;5077424;27;45512;-78
2022/03/20 06:57:32;;;;;;;;;9.67;8.67;;;;;22.34;20.66;102076.25;5077452;27;45505;-78
2022/03/20 07:00:02;;;;;;;;;10.67;10.67;;;;;22.40;20.48;102083.41;5082730;27;46302;-78
2022/03/20 07:02:28;;;;;;;;;11.00;9.00;;;;;21.87;20.40;101975.72;5085907;27;45431;-78
2022/03/20 07:04:53;;;;;;;;;13.00;10.33;;;;;22.26;20.59;102032.13;5084568;27;45411;-78
2022/03/20 07:07:20;;;;;;;;;12.67;9.67;;;;;22.43;20.64;102059.94;5053107;28;45533;-79
2022/03/20 07:09:46;;;;;;;;;12.00;12.00;;;;;22.28;20.40;102020.38;5055557;28;45426;-78
2022/03/20 07:12:13;;;;;;;;;13.33;11.67;;;;;22.61;20.55;102080.50;5055342;28;45436;-78
2022/03/20 07:14:39;;;;;;;;;12.33;12.00;;;;;22.62;20.34;102084.09;5056061;28;45446;-78
2022/03/20 07:17:15;;;;;;;;;14.33;12.00;;;;;22.18;20.63;102029.50;5056839;28;45425;-78
2022/03/20 07:19:43;;;;;;;;;17.33;13.00;;;;;22.38;20.78;102071.72;5056219;28;46011;-78
2022/03/20 07:22:10;;;;;;;;;15.67;14.33;;;;;22.55;20.57;102091.38;5056378;28;45322;-77
2022/03/20 07:24:41;;;;;;;;;14.33;13.33;;;;;22.65;20.46;102091.28;5056760;28;45394;-77
2022/03/20 07:29:51;;;;;;;;;17.33;17.00;;;;;22.68;20.35;102112.91;5076788;28;45343;-78
2022/03/20 07:32:17;;;;;;;;;16.33;14.00;;;;;22.76;20.53;102097.47;5076880;27;45429;-78
2022/03/20 07:34:46;;;;;;;;;18.00;14.33;;;;;22.60;20.65;102069.66;5077051;27;45420;-78
2022/03/20 07:37:17;;;;;;;;;13.33;13.33;;;;;22.83;20.27;102096.50;5076516;27;45442;-78
2022/03/20 07:39:44;;;;;;;;;17.00;16.00;;;;;22.83;20.36;102093.78;5076569;27;45545;-78
2022/03/20 07:42:10;;;;;;;;;22.33;19.33;;;;;22.80;20.55;102074.91;5076761;27;45433;-78
2022/03/20 07:44:36;;;;;;;;;21.33;19.67;;;;;22.96;20.41;102095.44;5076974;27;45374;-78
2022/03/20 07:47:02;;;;;;;;;19.67;17.67;;;;;22.89;20.42;102082.88;5075572;28;45590;-78
2022/03/20 07:49:28;;;;;;;;;20.00;17.67;;;;;22.74;20.27;102081.28;5076510;27;45426;-78
2022/03/20 07:51:55;;;;;;;;;13.67;13.33;;;;;22.58;20.50;102039.94;5075807;28;45396;-78
2022/03/20 07:54:20;;;;;;;;;19.00;17.33;;;;;22.50;20.46;102024.72;5076532;28;45380;-78
2022/03/20 07:56:46;;;;;;;;;18.33;18.00;;;;;22.95;20.48;102099.09;5075068;28;45578;-77
2022/03/20 07:59:11;;;;;;;;;22.33;18.00;;;;;22.88;20.58;102085.63;5076634;27;45987;-77
2022/03/20 08:01:37;;;;;;;;;20.00;17.67;;;;;22.71;20.65;102064.16;5076412;27;45553;-77
2022/03/20 08:04:04;;;;;;;;;21.33;19.67;;;;;23.00;20.44;102095.44;5076706;27;45506;-77
2022/03/20 08:06:30;;;;;;;;;22.00;18.67;;;;;23.01;20.22;102095.41;5076329;27;45490;-77
2022/03/20 08:08:59;;;;;;;;;25.33;21.67;;;;;23.05;20.04;102098.97;5076086;27;45508;-77
2022/03/20 08:11:27;;;;;;;;;20.67;17.67;;;;;22.79;20.33;102029.81;5076338;27;45438;-77
2022/03/20 08:13:53;;;;;;;;;22.00;21.00;;;;;23.12;20.15;102098.00;5076125;27;45345;-77
2022/03/20 08:16:21;;;;;;;;;28.00;21.00;;;;;23.16;20.42;102094.34;5076196;27;45339;-77
2022/03/20 08:18:48;;;;;;;;;25.33;21.67;;;;;23.10;20.35;102095.28;5075749;27;45534;-77
2022/03/20 08:21:14;;;;;;;;;20.33;20.33;;;;;23.01;20.32;102068.34;5075571;27;45370;-77
2022/03/20 08:23:40;;;;;;;;;22.33;20.00;;;;;23.29;20.32;102096.00;5073744;28;45393;-77
2022/03/20 08:26:08;;;;;;;;;21.67;20.00;;;;;23.34;19.89;102098.63;5067271;28;45443;-77
2022/03/20 08:28:35;;;;;;;;;20.00;19.00;;;;;23.34;19.94;102101.34;5080145;27;45439;-76
2022/03/20 08:31:00;;;;;;;;;22.67;20.33;;;;;23.27;20.23;102111.34;5095472;27;45461;-77
2022/03/20 08:33:27;;;;;;;;;22.67;21.00;;;;;23.37;20.13;102089.59;5095765;27;45445;-77
2022/03/20 08:35:55;;;;;;;;;19.00;19.00;;;;;23.21;20.12;102062.69;5095249;27;45355;-77
2022/03/20 08:38:21;;;;;;;;;29.00;23.33;;;;;23.43;20.12;102087.69;5094791;27;50815;-77
2022/03/20 08:40:47;;;;;;;;;26.00;20.00;;;;;23.64;20.18;102094.63;5095408;27;45450;-76
2022/03/20 08:43:15;;;;;;;;;22.67;19.67;;;;;23.29;20.15;102033.72;5095812;27;45471;-77
2022/03/20 08:45:41;;;;;;;;;19.67;19.00;;;;;23.41;20.06;102048.88;5088763;27;45373;-77
2022/03/20 08:48:08;;;;;;;;;21.33;20.00;;;;;23.85;19.79;102108.75;5057295;28;46506;-77
2022/03/20 08:50:33;;;;;;;;;20.33;19.67;;;;;23.96;19.86;102112.25;5107149;27;45796;-77
2022/03/20 08:52:59;;;;;;;;;19.00;17.33;;;;;23.82;19.91;102087.13;5064954;27;45603;-77
2022/03/20 08:55:24;;;;;;;;;26.33;20.67;;;;;23.84;19.97;102093.44;5074379;28;46024;-77
2022/03/20 08:57:54;;;;;;;;;26.00;25.00;;;;;23.99;20.15;102116.72;5073943;27;45768;-77
2022/03/20 09:00:22;;;;;;;;;24.67;21.67;;;;;23.98;20.10;102126.69;5073449;27;45584;-77
2022/03/20 09:02:49;;;;;;;;;29.00;22.00;;;;;23.93;20.05;102117.72;5073971;27;45652;-77
2022/03/20 09:05:15;;;;;;;;;27.00;23.00;;;;;23.92;19.64;102121.38;5069636;27;45505;-77
2022/03/20 09:07:41;;;;;;;;;29.33;21.67;;;;;24.01;19.76;102113.97;5053847;28;45876;-77
2022/03/20 09:10:08;;;;;;;;;24.00;24.00;;;;;23.91;19.81;102113.22;5087020;27;45512;-76
2022/03/20 09:12:40;;;;;;;;;26.67;24.00;;;;;22.96;20.21;101979.06;5064191;27;45446;-76
2022/03/20 09:15:09;;;;;;;;;29.00;26.67;;;;;23.98;20.18;102126.69;5074092;27;45563;-79
2022/03/20 09:20:20;;;;;;;;;31.67;24.33;;;;;24.03;20.09;102125.72;5062344;27;46064;-75
2022/03/20 09:22:46;;;;;;;;;24.00;22.00;;;;;24.03;19.79;102095.91;5063499;27;46370;-75
2022/03/20 09:25:11;;;;;;;;;27.00;26.00;;;;;24.33;19.66;102097.19;5067628;27;45508;-74
2022/03/20 09:27:37;;;;;;;;;38.00;28.33;;;;;24.42;19.58;102115.16;5063944;27;46435;-75
2022/03/20 09:30:04;;;;;;;;;26.00;24.00;;;;;24.37;19.90;102125.16;5088934;27;45727;-75
2022/03/20 09:32:29;;;;;;;;;29.67;25.67;;;;;24.37;18.76;102133.31;5067675;27;45487;-76
2022/03/20 09:34:54;;;;;;;;;24.67;24.67;;;;;24.33;19.02;102127.03;5068647;27;45852;-75
2022/03/20 09:37:20;;;;;;;;;29.67;28.67;;;;;24.21;19.36;102087.47;5064433;27;45446;-77
2022/03/20 09:39:45;;;;;;;;;36.00;29.67;;;;;24.56;19.04;102128.47;5070048;27;45778;-75
2022/03/20 09:42:11;;;;;;;;;33.00;31.33;;;;;24.64;19.10;102124.72;5058398;28;45614;-75
2022/03/20 09:44:40;;;;;;;;;31.00;26.33;;;;;24.72;19.31;102112.81;5103293;27;45980;-74
2022/03/20 09:47:18;;;;;;;;;28.00;25.33;;;;;24.76;18.82;102117.28;5062656;27;46592;-73
2022/03/20 09:49:48;;;;;;;;;25.33;25.33;;;;;24.83;18.98;102116.25;5068519;28;46215;-73
2022/03/20 09:52:14;;;;;;;;;39.00;32.00;;;;;24.92;18.74;102116.06;5068091;27;45446;-76
2022/03/20 09:54:40;;;;;;;;;33.33;27.67;;;;;24.82;18.70;102103.56;5057017;28;45465;-75
2022/03/20 09:57:08;;;;;;;;;29.00;27.33;;;;;24.78;18.77;102086.47;5053032;28;46299;-74
2022/03/20 09:59:36;;;;;;;;;25.33;22.67;;;;;24.92;18.32;102113.34;5061362;27;45532;-74
2022/03/20 10:02:09;;;;;;;;;33.67;27.67;;;;;24.96;18.95;102117.81;5066438;27;45541;-77
2022/03/20 10:05:06;;;;;;;;;28.67;24.67;;;;;24.88;18.73;102113.41;5066499;27;45525;-78
2022/03/20 10:07:35;;;;;;;;;28.00;27.00;;;;;24.73;18.76;102073.91;5066557;27;46201;-78
2022/03/20 10:10:06;;;;;;;;;32.00;30.33;;;;;24.91;18.31;102114.28;5052603;28;45470;-78
2022/03/20 10:12:33;;;;;;;;;30.00;27.33;;;;;24.63;19.04;102124.75;5064671;27;45472;-79
2022/03/20 10:14:59;;;;;;;;;32.33;31.33;;;;;24.23;18.94;102015.13;5065282;27;45385;-78
2022/03/20 10:17:24;;;;;;;;;31.00;26.00;;;;;24.77;18.44;102060.25;5061619;28;45548;-79
2022/03/20 10:19:50;;;;;;;;;28.00;26.00;;;;;25.00;18.26;102095.06;5071945;27;45466;-77
2022/03/20 10:22:16;;;;;;;;;26.33;24.33;;;;;25.27;17.97;102117.16;5064941;27;45507;-80
2022/03/20 10:24:48;;;;;;;;;29.33;27.33;;;;;25.09;17.86;102068.66;5066814;28;45603;-80
2022/03/20 10:27:14;;;;;;;;;33.67;28.67;;;;;25.50;18.49;102114.00;5060081;27;46072;-77
2022/03/20 10:29:55;;;;;;;;;28.33;28.33;;;;;25.55;18.43;102110.28;5061350;27;45681;-78
2022/03/20 10:32:22;;;;;;;;;26.00;24.00;;;;;25.52;17.88;102117.56;5068260;27;45749;-75
2022/03/20 10:34:59;;;;;;;;;30.00;26.00;;;;;25.45;17.99;102118.63;5064719;28;45591;-76
2022/03/20 10:37:43;;;;;;;;;32.33;26.33;;;;;25.65;18.11;102120.00;5063601;27;46739;-78
2022/03/20 10:40:10;;;;;;;;;25.33;21.67;;;;;25.52;17.67;102122.09;5070620;27;45793;-77
2022/03/20 10:42:35;;;;;;;;;24.67;22.00;;;;;25.55;17.86;102107.56;5069802;27;45809;-82
2022/03/20 10:45:05;;;;;;;;;28.33;27.00;;;;;25.70;17.52;102114.50;5068466;27;45693;-78
2022/03/20 10:47:31;;;;;;;;;29.00;24.33;;;;;25.77;17.63;102117.03;5066863;27;46267;-78
2022/03/20 10:50:02;;;;;;;;;24.67;19.00;;;;;25.87;17.25;102109.53;5069172;27;45863;-77
2022/03/20 10:52:29;;;;;;;;;22.33;18.33;;;;;25.87;16.72;102105.94;5073931;27;45500;-78
2022/03/20 10:54:55;;;;;;;;;19.00;18.33;;;;;25.08;16.47;102008.03;5071849;27;45498;-78
2022/03/20 10:57:21;;;;;;;;;22.67;18.00;;;;;25.44;16.47;102078.81;5072058;27;46343;-78
2022/03/20 11:00:05;;;;;;;;;16.67;14.67;;;;;25.30;17.19;102018.41;5060804;27;45493;-82
2022/03/20 11:02:31;;;;;;;;;20.33;17.00;;;;;25.91;16.55;102088.63;5062349;27;45371;-79
2022/03/20 11:04:56;;;;;;;;;19.00;18.00;;;;;25.87;16.04;102097.78;5064487;28;45790;-78
2022/03/20 11:07:23;;;;;;;;;18.00;16.67;;;;;25.55;16.72;102103.00;5068940;27;46252;-83
2022/03/20 11:09:53;;;;;;;;;18.67;18.00;;;;;25.42;16.65;102083.38;5053836;28;45962;-82
2022/03/20 11:12:32;;;;;;;;;14.33;13.33;;;;;25.82;16.83;102097.88;5064781;27;45547;-82
2022/03/20 11:15:01;;;;;;;;;18.33;17.00;;;;;25.96;16.76;102083.94;5062010;27;46121;-82
2022/03/20 11:17:32;;;;;;;;;21.00;19.00;;;;;26.02;16.39;102083.84;5061327;28;46400;-81
2022/03/20 11:19:59;;;;;;;;;18.67;16.67;;;;;26.19;16.31;102097.91;5062449;27;45910;-80
2022/03/20 11:22:26;;;;;;;;;17.00;12.00;;;;;25.95;16.36;102063.13;5061251;27;45825;-81
2022/03/20 11:24:55;;;;;;;;;20.00;15.67;;;;;26.14;16.28;102074.47;5074247;27;45573;-82
2022/03/20 11:27:30;;;;;;;;;22.67;19.00;;;;;26.26;16.47;102093.22;5070408;27;45557;-82
2022/03/20 11:30:05;;;;;;;;;21.67;18.33;;;;;26.18;15.97;102062.59;5065231;28;45434;-81
2022/03/20 11:32:31;;;;;;;;;16.33;14.33;;;;;26.02;16.46;102016.75;5061972;27;45567;-86
2022/03/20 11:34:57;;;;;;;;;17.33;15.33;;;;;26.54;15.97;102104.28;5059335;28;45546;-82
2022/03/20 11:37:41;;;;;;;;;21.33;20.33;;;;;26.58;16.59;102088.75;5064621;27;45473;-82
2022/03/20 11:40:07;;;;;;;;;22.00;19.33;;;;;26.49;16.04;102053.63;5065711;27;45518;-81
2022/03/20 11:42:33;;;;;;;;;13.00;13.00;;;;;26.48;15.88;102087.19;5072213;28;45520;-82
2022/03/20 11:45:04;;;;;;;;;15.00;15.00;;;;;26.56;15.55;102096.06;5063317;27;45545;-72
2022/03/20 11:47:31;;;;;;;;;20.67;18.00;;;;;26.41;15.59;102091.03;5069755;27;45559;-75
2022/03/20 11:50:08;;;;;;;;;22.67;16.67;;;;;26.44;15.49;102080.97;5066420;27;45888;-68
2022/03/20 11:52:44;;;;;;;;;14.33;14.00;;;;;26.44;15.31;102088.22;5096340;27;45512;-69